Terminal Aerodrome Forecast
Issued by NWS

Home | Current Version | Previous Version | Text Only | Print | Product List | Glossary On
Versions: 1 2 3 4 5 6 7 8 9 10 11 12 13 14 15 16 17
000
FTAK31 PAJN 252340
TAFAPG
TAF
PAPG 252340Z 2600/2624 VRB06KT P6SM SCT040 BKN070
      TEMPO 2600/2604 04009G19KT
     FM260600 22005KT P6SM SCT050
     FM261200 25005KT P6SM BKN050 BKN100
     FM261400 24004KT P6SM BKN025 OVC070
     FM261900 05005KT P6SM FEW030 SCT070
      AMD LTD TO CLD VIS AND WIND 2606/2615=

USA.gov is the U.S. government's official web portal to all federal, state and local government web resources and services.